Historique des mesures à Cassis (13260), France
Quotidien Résumé Juin 30, 2017 Unités:  US    Métrique   Métrique/US
« Précédent (Jour)
Suivant (Jour) »
Quotidien Hebdomadaire Mensuel Annuel Période au choix
  Maximum: Minimum: Moyenne:
Température: 32 °F 64.6 °F 68.7 °F
Point de rosée: 32 °F 48 °F 50.5 °F
Humidité: Humidity % 40 % 49 %
Vitesse du vent: WindSpeedKMH mph 0.0 mph 9.6 mph
Rafales: WindSpeedGustKMH mph - -
Vent:- - SSW
Pression: 0 in 29.7 in -
Précipitations: 0 in    
Historical Graphs
 
 
Mesures pour : Juin 30, 2017
Heure Temperature Point de rosée Pression Vent Vitesse du vent Rafales Humidité Pluie (par heure) Conditions
32 °F 32 °F 0 in Calm     Humidity % 0 in SoftwareType W/m2
00:10 69.6 °F 51.3 °F 29.7 in NNW 9.0 mph 10.5 mph 52 % 0 in open2300-1.11 W/m2
01:11 69.1 °F 50.2 °F 29.7 in NNW 18.0 mph 18.0 mph 51 % 0 in open2300-1.11 W/m2
02:11 67.8 °F 50.5 °F 29.7 in NW 10.8 mph 14.8 mph 54 % 0 in open2300-1.11 W/m2
03:10 66.9 °F 49.3 °F 29.7 in NW 18.0 mph 18.0 mph 53 % 0 in open2300-1.11 W/m2
04:10 66.2 °F 48 °F 29.7 in North 8.2 mph 21.9 mph 52 % 0 in open2300-1.11 W/m2
05:10 65.3 °F 48.7 °F 29.7 in NW 28.8 mph 28.8 mph 55 % 0 in open2300-1.11 W/m2
06:11 64.6 °F 48.9 °F 29.7 in Calm   2.9 mph 57 % 0 in open2300-1.11 W/m2
07:11 64.9 °F 49.8 °F 29.7 in Calm   1.4 mph 58 % 0 in open2300-1.11 W/m2
08:10 65.1 °F 50.4 °F 29.8 in NNE 2.6 mph 4.0 mph 59 % 0 in open2300-1.11 W/m2
09:11 66.6 °F 49.5 °F 29.7 in NNE 6.4 mph 9.3 mph 54 % 0 in open2300-1.11 W/m2
10:10 70 °F 49.8 °F 29.8 in North 4.0 mph 11.6 mph 49 % 0 in open2300-1.11 W/m2
11:11 73.9 °F 49.3 °F 29.8 in NNW 6.1 mph 6.1 mph 42 % 0 in open2300-1.11 W/m2
12:10 76.8 °F 51.3 °F 29.8 in WNW 5.8 mph 11.9 mph 41 % 0 in open2300-1.11 W/m2
13:10 76.6 °F 51.3 °F 29.8 in NNE 11.9 mph 21.2 mph 41 % 0 in open2300-1.11 W/m2
14:11 74.8 °F 48.9 °F 29.8 in NW 20.1 mph 20.1 mph 40 % 0 in open2300-1.11 W/m2
16:11 76.8 °F 54.3 °F 29.8 in SSW 6.1 mph 13.4 mph 46 % 0 in open2300-1.11 W/m2
17:11 75.9 °F 54.1 °F 29.8 in SSW 4.7 mph 10.1 mph 47 % 0 in open2300-1.11 W/m2
18:11 76.1 °F 55 °F 29.8 in South 13.0 mph 17.2 mph 48 % 0 in open2300-1.11 W/m2
19:10 73.6 °F 54.9 °F 29.8 in WSW 11.9 mph 14.3 mph 52 % 0 in open2300-1.11 W/m2
20:11 71.4 °F 54.9 °F 29.8 in WNW 16.3 mph 16.3 mph 56 % 0 in open2300-1.11 W/m2
21:10 70.2 °F 53.8 °F 29.8 in WNW 9.7 mph 18.3 mph 56 % 0 in open2300-1.11 W/m2
22:10 69.4 °F 54 °F 29.8 in NNE 3.5 mph 5.5 mph 58 % 0 in open2300-1.11 W/m2
23:11 67.3 °F 53.8 °F 29.8 in NNW 14.8 mph 14.8 mph 62 % 0 in open2300-1.11 W/m2
Observations météo à CASSIS
WU-History script by Weather Underground - 1 mb